Terminal Aerodrome Forecast
Issued by NWS

Current Version | Previous Version | Text Only | Print | Product List | Glossary On
Versions: 1 2 3 4 5 6 7 8 9 10 11 12 13 14 15 16 17 18 19 20
000
FTUS43 KGRB 191731
TAFCWA
TAF
KCWA 191731Z 1918/2018 28012G17KT P6SM SCT120
     FM192000 27009KT P6SM BKN080
     FM200000 24005KT P6SM FEW050 BKN080 WS015/25035KT
     FM200400 23005KT P6SM SCT100 SCT250 WS015/28040KT
     FM200700 22004KT P6SM BKN250
     FM201200 19003KT P6SM BKN250
     FM201600 19007KT P6SM BKN250=

USA.gov is the U.S. government's official web portal to all federal, state and local government web resources and services.